Terminal Aerodrome Forecast
Issued by NWS Jackson, MS

Home | Current Version | Previous Version | Text Only | Print | Product List | Glossary On
Versions: 1 2 3 4 5 6 7 8 9 10 11 12 13 14 15
000
FTUS44 KMEG 210500
TAFTUP
TAF
KTUP 210524Z 2106/2206 19003KT P6SM BKN200
     FM211100 19003KT P6SM SCT050 BKN150
     FM211500 20007KT P6SM BKN050
     FM220000 24005KT P6SM VCSH BKN050 OVC100
     FM220300 21005KT P6SM -TSRA BKN050CB OVC100=

USA.gov is the U.S. government's official web portal to all federal, state and local government web resources and services.